R/r Baru I — 001138 — position and weather

sailwx.info

Track history (hours):
 
Tides and Currents Weather Stations Pressure Air Temp Water Temp Dewpoint Dewpoint Depression Visibility Wind Speed Wind Dir Waves Ship Positions

R/r Baru I

Last reported at 2018-Feb-06 15:56 UTC. Time now 2018-Feb-19 04:22 UTC.
Position N 10°56' W 074°44'.
Warning: this ship's position is 12 days out of date.

Length 18 m.

Type: Tug. MMSI: 627214286.

Date/timePositionNaut miles runAvg speedWind from/ knotsBaromVisibWave heightAir tempDewpointWater temp
2018-Feb-06 15:56N 10°56' W 074°44'1 3.3
2018-Feb-06 15:30N 10°57' W 074°45'2 4.6
2018-Feb-06 15:00N 10°59' W 074°45'2 4.5
2018-Feb-06 14:29N 11°01' W 074°47'2 3.7
2018-Feb-06 14:00N 11°02' W 074°48'1 1.0
2018-Feb-06 13:25N 11°02' W 074°49'3 7.3
2018-Feb-06 13:00N 11°00' W 074°46'3 5.9
2018-Feb-06 12:25N 10°57' W 074°45'0 0.2
2018-Feb-06 12:00N 10°57' W 074°45'3 4.7
2018-Feb-06 11:23N 11°00' W 074°46'2 4.3
2018-Feb-06 11:00N 11°01' W 074°47'2 0.1
2018-Feb-05 07:44N 11°02' W 074°49'0 0.0
2018-Feb-05 07:23N 11°02' W 074°49'0 0.0
2018-Feb-05 06:59N 11°02' W 074°49'0 0.0
2018-Feb-05 06:29N 11°02' W 074°49'0 0.0
2018-Feb-05 05:29N 11°02' W 074°49'0 0.0
2018-Feb-05 04:59N 11°02' W 074°49'2 3.0
2018-Feb-05 04:26N 11°04' W 074°49'2 3.6
2018-Feb-05 03:59N 11°02' W 074°49'0 0.0
2018-Feb-05 03:29N 11°02' W 074°49'0 0.0
2018-Feb-05 02:59N 11°02' W 074°49'0 0.0
2018-Feb-05 02:29N 11°02' W 074°49'0 0.0
2018-Feb-05 01:59N 11°02' W 074°49'0 0.0
2018-Feb-05 01:29N 11°02' W 074°49'0 0.4
2018-Feb-05 01:00N 11°02' W 074°49'0 0.3
2018-Feb-05 00:29N 11°02' W 074°49'0 0.0
2018-Feb-04 23:59N 11°02' W 074°49'0 0.0
2018-Feb-04 23:29N 11°02' W 074°49'0 0.0
2018-Feb-04 22:59N 11°02' W 074°49'0 0.0
2018-Feb-04 22:29N 11°02' W 074°49'0 0.0
2018-Feb-04 21:59N 11°02' W 074°49'0 0.0
2018-Feb-04 21:29N 11°02' W 074°49'0 0.0
2018-Feb-04 20:59N 11°02' W 074°49'0 0.0
2018-Feb-04 19:59N 11°02' W 074°49'0 0.0
2018-Feb-04 19:29N 11°02' W 074°49'0 0.0
2018-Feb-04 18:59N 11°02' W 074°49'0 0.0
2018-Feb-04 18:29N 11°02' W 074°49'0 0.0
2018-Feb-04 17:59N 11°02' W 074°49'0 0.0
2018-Feb-04 17:26N 11°02' W 074°49'0 0.0
2018-Feb-04 15:26N 11°02' W 074°49'0 0.0
2018-Feb-04 14:56N 11°02' W 074°49'0 0.0
2018-Feb-04 14:26N 11°02' W 074°49'0 0.0
2018-Feb-04 13:03N 11°02' W 074°49'0 0.0
2018-Feb-04 12:57N 11°02' W 074°49'0 0.0
2018-Feb-04 12:27N 11°02' W 074°49'0 0.1
2018-Feb-04 11:59N 11°02' W 074°49'0 0.1
2018-Feb-04 11:27N 11°02' W 074°49'0 0.0
2018-Feb-04 09:57N 11°02' W 074°49'0 0.0
2018-Feb-04 08:57N 11°02' W 074°49'0 0.0
2018-Feb-04 08:27N 11°02' W 074°49'0 0.0
2018-Feb-04 07:57N 11°02' W 074°49'0 0.0
2018-Feb-04 07:27N 11°02' W 074°49'0 0.0
2018-Feb-04 06:57N 11°02' W 074°49'0 0.0
2018-Feb-04 06:27N 11°02' W 074°49'0 0.0
2018-Feb-04 05:57N 11°02' W 074°49'0 0.0
2018-Feb-04 05:27N 11°02' W 074°49'0 0.0
2018-Feb-04 04:57N 11°02' W 074°49'0 0.0
2018-Feb-04 04:27N 11°02' W 074°49'0 0.0
2018-Feb-04 03:57N 11°02' W 074°49'0 0.0
2018-Feb-04 03:27N 11°02' W 074°49'0 0.0
2018-Feb-04 02:57N 11°02' W 074°49'0 0.0
2018-Feb-04 02:27N 11°02' W 074°49'0 0.0
2018-Feb-04 01:57N 11°02' W 074°49'0 0.0
2018-Feb-04 01:27N 11°02' W 074°49'0 0.0
2018-Feb-04 00:57N 11°02' W 074°49'0 0.0
2018-Feb-04 00:27N 11°02' W 074°49'0 0.0
2018-Feb-03 23:57N 11°02' W 074°49'0 0.0
2018-Feb-03 23:27N 11°02' W 074°49'0 0.0
2018-Feb-03 22:57N 11°02' W 074°49'0 0.0
2018-Feb-03 22:28N 11°02' W 074°49'0 0.0
2018-Feb-03 21:55N 11°02' W 074°49'3 5.9
2018-Feb-03 21:29N 11°01' W 074°47'4 7.4
2018-Feb-03 21:00N 10°58' W 074°45'0 0.9
2018-Feb-03 20:30N 10°57' W 074°45'0 0.0
2018-Feb-03 20:00N 10°57' W 074°45'0 0.0
2018-Feb-03 18:30N 10°57' W 074°45'3 5.7
2018-Feb-03 17:58N 11°00' W 074°46'3 5.7
2018-Feb-03 17:30N 11°02' W 074°48'1 1.9
2018-Feb-03 17:00N 11°02' W 074°49'4 4.3
2018-Feb-03 15:59N 10°59' W 074°46'2 4.0
2018-Feb-03 15:30N 10°57' W 074°45'0 0.3
2018-Feb-03 15:00N 10°57' W 074°45'0 0.2
2018-Feb-03 14:28N 10°57' W 074°45'1 1.8
2018-Feb-03 14:00N 10°58' W 074°45'2 4.4
2018-Feb-03 13:29N 11°00' W 074°46'2 3.8
2018-Feb-03 12:59N 11°01' W 074°48'1 2.4
2018-Feb-03 12:23N 11°02' W 074°49'0 0.1
2018-Feb-03 12:00N 11°02' W 074°49'0 0.0
2018-Feb-03 11:30N 11°02' W 074°49'0 0.0
2018-Feb-03 11:00N 11°02' W 074°49'0 0.0
2018-Feb-03 10:30N 11°02' W 074°49'0 0.0
2018-Feb-03 10:00N 11°02' W 074°49'0 0.0
2018-Feb-03 09:30N 11°02' W 074°49'0 0.0
2018-Feb-03 09:00N 11°02' W 074°49'0 0.0
2018-Feb-03 08:30N 11°02' W 074°49'0 0.0
2018-Feb-03 08:00N 11°02' W 074°49'0 0.0
2018-Feb-03 06:30N 11°02' W 074°49'0 0.0
2018-Feb-03 06:00N 11°02' W 074°49'0 0.0
2018-Feb-03 05:30N 11°02' W 074°49'0 0.0
2018-Feb-03 05:00N 11°02' W 074°49'0 0.0
2018-Feb-03 04:00N 11°02' W 074°49'0 0.0
2018-Feb-03 03:30N 11°02' W 074°49'0 0.0
2018-Feb-03 02:00N 11°02' W 074°49'0 0.0
2018-Feb-03 01:30N 11°02' W 074°49'0 0.0
2018-Feb-03 01:00N 11°02' W 074°49'0 0.0
2018-Feb-03 00:30N 11°02' W 074°49'0 0.0
2018-Feb-03 00:00N 11°02' W 074°49'0 0.0
2018-Feb-02 23:30N 11°02' W 074°49'0 0.0
2018-Feb-02 23:00N 11°02' W 074°49'0 0.0
2018-Feb-02 22:30N 11°02' W 074°49'0 0.1
2018-Feb-02 22:00N 11°02' W 074°49'1 1.8
2018-Feb-02 21:30N 11°02' W 074°48'3 6.5
2018-Feb-02 20:59N 10°59' W 074°46'3 6.3
2018-Feb-02 20:29N 10°56' W 074°45'1 2.0
2018-Feb-02 19:59N 10°56' W 074°44'  
Track history (hours):
 
Tides and Currents Weather Stations Pressure Air Temp Water Temp Dewpoint Dewpoint Depression Visibility Wind Speed Wind Dir Waves Ship Positions

R/r Baru I

Last reported at 2018-Feb-06 15:56 UTC. Time now 2018-Feb-19 04:22 UTC.
Position N 10°56' W 074°44'.
Warning: this ship's position is 12 days out of date.

Length 18 m.

Type: Tug. MMSI: 627214286.

Date/timePositionNaut miles runAvg speedWind from/ knotsBaromVisibWave heightAir tempDewpointWater temp
2018-Feb-06 15:56N 10°56' W 074°44'1 3.3
2018-Feb-06 15:30N 10°57' W 074°45'2 4.6
2018-Feb-06 15:00N 10°59' W 074°45'2 4.5
2018-Feb-06 14:29N 11°01' W 074°47'2 3.7
2018-Feb-06 14:00N 11°02' W 074°48'1 1.0
2018-Feb-06 13:25N 11°02' W 074°49'3 7.3
2018-Feb-06 13:00N 11°00' W 074°46'3 5.9
2018-Feb-06 12:25N 10°57' W 074°45'0 0.2
2018-Feb-06 12:00N 10°57' W 074°45'3 4.7
2018-Feb-06 11:23N 11°00' W 074°46'2 4.3
2018-Feb-06 11:00N 11°01' W 074°47'2 0.1
2018-Feb-05 07:44N 11°02' W 074°49'0 0.0
2018-Feb-05 07:23N 11°02' W 074°49'0 0.0
2018-Feb-05 06:59N 11°02' W 074°49'0 0.0
2018-Feb-05 06:29N 11°02' W 074°49'0 0.0
2018-Feb-05 05:29N 11°02' W 074°49'0 0.0
2018-Feb-05 04:59N 11°02' W 074°49'2 3.0
2018-Feb-05 04:26N 11°04' W 074°49'2 3.6
2018-Feb-05 03:59N 11°02' W 074°49'0 0.0
2018-Feb-05 03:29N 11°02' W 074°49'0 0.0
2018-Feb-05 02:59N 11°02' W 074°49'0 0.0
2018-Feb-05 02:29N 11°02' W 074°49'0 0.0
2018-Feb-05 01:59N 11°02' W 074°49'0 0.0
2018-Feb-05 01:29N 11°02' W 074°49'0 0.4
2018-Feb-05 01:00N 11°02' W 074°49'0 0.3
2018-Feb-05 00:29N 11°02' W 074°49'0 0.0
2018-Feb-04 23:59N 11°02' W 074°49'0 0.0
2018-Feb-04 23:29N 11°02' W 074°49'0 0.0
2018-Feb-04 22:59N 11°02' W 074°49'0 0.0
2018-Feb-04 22:29N 11°02' W 074°49'0 0.0
2018-Feb-04 21:59N 11°02' W 074°49'0 0.0
2018-Feb-04 21:29N 11°02' W 074°49'0 0.0
2018-Feb-04 20:59N 11°02' W 074°49'0 0.0
2018-Feb-04 19:59N 11°02' W 074°49'0 0.0
2018-Feb-04 19:29N 11°02' W 074°49'0 0.0
2018-Feb-04 18:59N 11°02' W 074°49'0 0.0
2018-Feb-04 18:29N 11°02' W 074°49'0 0.0
2018-Feb-04 17:59N 11°02' W 074°49'0 0.0
2018-Feb-04 17:26N 11°02' W 074°49'0 0.0
2018-Feb-04 15:26N 11°02' W 074°49'0 0.0
2018-Feb-04 14:56N 11°02' W 074°49'0 0.0
2018-Feb-04 14:26N 11°02' W 074°49'0 0.0
2018-Feb-04 13:03N 11°02' W 074°49'0 0.0
2018-Feb-04 12:57N 11°02' W 074°49'0 0.0
2018-Feb-04 12:27N 11°02' W 074°49'0 0.1
2018-Feb-04 11:59N 11°02' W 074°49'0 0.1
2018-Feb-04 11:27N 11°02' W 074°49'0 0.0
2018-Feb-04 09:57N 11°02' W 074°49'0 0.0
2018-Feb-04 08:57N 11°02' W 074°49'0 0.0
2018-Feb-04 08:27N 11°02' W 074°49'0 0.0
2018-Feb-04 07:57N 11°02' W 074°49'0 0.0
2018-Feb-04 07:27N 11°02' W 074°49'0 0.0
2018-Feb-04 06:57N 11°02' W 074°49'0 0.0
2018-Feb-04 06:27N 11°02' W 074°49'0 0.0
2018-Feb-04 05:57N 11°02' W 074°49'0 0.0
2018-Feb-04 05:27N 11°02' W 074°49'0 0.0
2018-Feb-04 04:57N 11°02' W 074°49'0 0.0
2018-Feb-04 04:27N 11°02' W 074°49'0 0.0
2018-Feb-04 03:57N 11°02' W 074°49'0 0.0
2018-Feb-04 03:27N 11°02' W 074°49'0 0.0
2018-Feb-04 02:57N 11°02' W 074°49'0 0.0
2018-Feb-04 02:27N 11°02' W 074°49'0 0.0
2018-Feb-04 01:57N 11°02' W 074°49'0 0.0
2018-Feb-04 01:27N 11°02' W 074°49'0 0.0
2018-Feb-04 00:57N 11°02' W 074°49'0 0.0
2018-Feb-04 00:27N 11°02' W 074°49'0 0.0
2018-Feb-03 23:57N 11°02' W 074°49'0 0.0
2018-Feb-03 23:27N 11°02' W 074°49'0 0.0
2018-Feb-03 22:57N 11°02' W 074°49'0 0.0
2018-Feb-03 22:28N 11°02' W 074°49'0 0.0
2018-Feb-03 21:55N 11°02' W 074°49'3 5.9
2018-Feb-03 21:29N 11°01' W 074°47'4 7.4
2018-Feb-03 21:00N 10°58' W 074°45'0 0.9
2018-Feb-03 20:30N 10°57' W 074°45'0 0.0
2018-Feb-03 20:00N 10°57' W 074°45'0 0.0
2018-Feb-03 18:30N 10°57' W 074°45'3 5.7
2018-Feb-03 17:58N 11°00' W 074°46'3 5.7
2018-Feb-03 17:30N 11°02' W 074°48'1 1.9
2018-Feb-03 17:00N 11°02' W 074°49'4 4.3
2018-Feb-03 15:59N 10°59' W 074°46'2 4.0
2018-Feb-03 15:30N 10°57' W 074°45'0 0.3
2018-Feb-03 15:00N 10°57' W 074°45'0 0.2
2018-Feb-03 14:28N 10°57' W 074°45'1 1.8
2018-Feb-03 14:00N 10°58' W 074°45'2 4.4
2018-Feb-03 13:29N 11°00' W 074°46'2 3.8
2018-Feb-03 12:59N 11°01' W 074°48'1 2.4
2018-Feb-03 12:23N 11°02' W 074°49'0 0.1
2018-Feb-03 12:00N 11°02' W 074°49'0 0.0
2018-Feb-03 11:30N 11°02' W 074°49'0 0.0
2018-Feb-03 11:00N 11°02' W 074°49'0 0.0
2018-Feb-03 10:30N 11°02' W 074°49'0 0.0
2018-Feb-03 10:00N 11°02' W 074°49'0 0.0
2018-Feb-03 09:30N 11°02' W 074°49'0 0.0
2018-Feb-03 09:00N 11°02' W 074°49'0 0.0
2018-Feb-03 08:30N 11°02' W 074°49'0 0.0
2018-Feb-03 08:00N 11°02' W 074°49'0 0.0
2018-Feb-03 06:30N 11°02' W 074°49'0 0.0
2018-Feb-03 06:00N 11°02' W 074°49'0 0.0
2018-Feb-03 05:30N 11°02' W 074°49'0 0.0
2018-Feb-03 05:00N 11°02' W 074°49'0 0.0
2018-Feb-03 04:00N 11°02' W 074°49'0 0.0
2018-Feb-03 03:30N 11°02' W 074°49'0 0.0
2018-Feb-03 02:00N 11°02' W 074°49'0 0.0
2018-Feb-03 01:30N 11°02' W 074°49'0 0.0
2018-Feb-03 01:00N 11°02' W 074°49'0 0.0
2018-Feb-03 00:30N 11°02' W 074°49'0 0.0
2018-Feb-03 00:00N 11°02' W 074°49'0 0.0
2018-Feb-02 23:30N 11°02' W 074°49'0 0.0
2018-Feb-02 23:00N 11°02' W 074°49'0 0.0
2018-Feb-02 22:30N 11°02' W 074°49'0 0.1
2018-Feb-02 22:00N 11°02' W 074°49'1 1.8
2018-Feb-02 21:30N 11°02' W 074°48'3 6.5
2018-Feb-02 20:59N 10°59' W 074°46'3 6.3
2018-Feb-02 20:29N 10°56' W 074°45'1 2.0
2018-Feb-02 19:59N 10°56' W 074°44'  

Dump ship's entire track history